sensor_id;sensor_type;location;lat;lon;timestamp;P1;durP1;ratioP1;P2;durP2;ratioP2
4074;SDS011;2052;53.522;9.806;2023-02-28T00:01:27;8.40;;;5.23;;
4074;SDS011;2052;53.522;9.806;2023-02-28T00:03:54;5.77;;;4.70;;
4074;SDS011;2052;53.522;9.806;2023-02-28T00:06:21;8.77;;;5.40;;
4074;SDS011;2052;53.522;9.806;2023-02-28T00:08:48;8.87;;;5.67;;
4074;SDS011;2052;53.522;9.806;2023-02-28T00:11:14;6.80;;;5.10;;
4074;SDS011;2052;53.522;9.806;2023-02-28T00:13:44;9.80;;;5.90;;
4074;SDS011;2052;53.522;9.806;2023-02-28T00:16:12;7.47;;;4.90;;
4074;SDS011;2052;53.522;9.806;2023-02-28T00:18:40;11.10;;;6.17;;
4074;SDS011;2052;53.522;9.806;2023-02-28T00:21:07;8.93;;;5.83;;
4074;SDS011;2052;53.522;9.806;2023-02-28T00:23:34;10.80;;;5.90;;
4074;SDS011;2052;53.522;9.806;2023-02-28T00:26:01;6.50;;;5.13;;
4074;SDS011;2052;53.522;9.806;2023-02-28T00:28:28;8.37;;;4.97;;
4074;SDS011;2052;53.522;9.806;2023-02-28T00:30:56;7.60;;;4.17;;
4074;SDS011;2052;53.522;9.806;2023-02-28T00:33:25;6.20;;;4.67;;
4074;SDS011;2052;53.522;9.806;2023-02-28T00:35:51;8.07;;;4.60;;
4074;SDS011;2052;53.522;9.806;2023-02-28T00:38:18;9.37;;;5.00;;
4074;SDS011;2052;53.522;9.806;2023-02-28T00:40:45;9.37;;;5.00;;
4074;SDS011;2052;53.522;9.806;2023-02-28T00:43:11;5.80;;;4.50;;
4074;SDS011;2052;53.522;9.806;2023-02-28T00:45:38;10.80;;;5.20;;
4074;SDS011;2052;53.522;9.806;2023-02-28T00:48:06;6.47;;;4.80;;
4074;SDS011;2052;53.522;9.806;2023-02-28T00:50:33;13.33;;;4.17;;
4074;SDS011;2052;53.522;9.806;2023-02-28T00:52:59;7.33;;;5.10;;
4074;SDS011;2052;53.522;9.806;2023-02-28T00:55:26;11.30;;;6.80;;
4074;SDS011;2052;53.522;9.806;2023-02-28T00:57:52;10.83;;;6.13;;
4074;SDS011;2052;53.522;9.806;2023-02-28T01:00:19;14.10;;;5.90;;
4074;SDS011;2052;53.522;9.806;2023-02-28T01:02:46;8.40;;;5.57;;
4074;SDS011;2052;53.522;9.806;2023-02-28T01:05:14;8.50;;;5.43;;
4074;SDS011;2052;53.522;9.806;2023-02-28T01:07:40;8.47;;;5.30;;
4074;SDS011;2052;53.522;9.806;2023-02-28T01:10:07;7.30;;;5.43;;
4074;SDS011;2052;53.522;9.806;2023-02-28T01:12:35;10.10;;;6.63;;
4074;SDS011;2052;53.522;9.806;2023-02-28T01:15:01;6.83;;;5.10;;
4074;SDS011;2052;53.522;9.806;2023-02-28T01:17:28;12.30;;;5.67;;
4074;SDS011;2052;53.522;9.806;2023-02-28T01:19:55;5.40;;;4.50;;
4074;SDS011;2052;53.522;9.806;2023-02-28T01:22:23;9.23;;;5.47;;
4074;SDS011;2052;53.522;9.806;2023-02-28T01:24:49;9.50;;;5.30;;
4074;SDS011;2052;53.522;9.806;2023-02-28T01:27:16;7.80;;;5.40;;
4074;SDS011;2052;53.522;9.806;2023-02-28T01:29:43;10.53;;;5.40;;
4074;SDS011;2052;53.522;9.806;2023-02-28T01:32:09;9.27;;;4.67;;
4074;SDS011;2052;53.522;9.806;2023-02-28T01:34:36;8.63;;;5.10;;
4074;SDS011;2052;53.522;9.806;2023-02-28T01:37:02;11.20;;;5.13;;
4074;SDS011;2052;53.522;9.806;2023-02-28T01:39:30;10.47;;;5.73;;
4074;SDS011;2052;53.522;9.806;2023-02-28T01:41:57;7.00;;;4.73;;
4074;SDS011;2052;53.522;9.806;2023-02-28T01:47:23;7.30;;;5.07;;
4074;SDS011;2052;53.522;9.806;2023-02-28T01:49:51;13.50;;;6.23;;
4074;SDS011;2052;53.522;9.806;2023-02-28T01:52:18;10.00;;;5.50;;
4074;SDS011;2052;53.522;9.806;2023-02-28T01:54:48;8.33;;;4.97;;
4074;SDS011;2052;53.522;9.806;2023-02-28T01:57:18;13.70;;;5.00;;
4074;SDS011;2052;53.522;9.806;2023-02-28T01:59:47;9.07;;;5.30;;
4074;SDS011;2052;53.522;9.806;2023-02-28T02:02:17;8.10;;;5.40;;
4074;SDS011;2052;53.522;9.806;2023-02-28T02:04:46;9.07;;;4.50;;
4074;SDS011;2052;53.522;9.806;2023-02-28T02:07:17;7.30;;;4.93;;
4074;SDS011;2052;53.522;9.806;2023-02-28T02:09:43;7.63;;;4.77;;
4074;SDS011;2052;53.522;9.806;2023-02-28T02:12:13;7.20;;;4.70;;
4074;SDS011;2052;53.522;9.806;2023-02-28T02:14:53;6.13;;;3.90;;
4074;SDS011;2052;53.522;9.806;2023-02-28T02:17:28;4.97;;;3.87;;
4074;SDS011;2052;53.522;9.806;2023-02-28T02:20:06;6.57;;;4.57;;
4074;SDS011;2052;53.522;9.806;2023-02-28T02:25:54;9.67;;;5.00;;
4074;SDS011;2052;53.522;9.806;2023-02-28T02:28:40;11.70;;;3.90;;
4074;SDS011;2052;53.522;9.806;2023-02-28T02:31:30;4.60;;;4.00;;
4074;SDS011;2052;53.522;9.806;2023-02-28T02:36:51;8.83;;;5.00;;
4074;SDS011;2052;53.522;9.806;2023-02-28T02:39:22;9.37;;;5.00;;
4074;SDS011;2052;53.522;9.806;2023-02-28T02:41:56;6.43;;;4.20;;
4074;SDS011;2052;53.522;9.806;2023-02-28T02:44:26;7.13;;;4.40;;
4074;SDS011;2052;53.522;9.806;2023-02-28T02:46:58;9.23;;;3.67;;
4074;SDS011;2052;53.522;9.806;2023-02-28T02:49:30;6.70;;;4.80;;
4074;SDS011;2052;53.522;9.806;2023-02-28T02:52:00;5.93;;;3.57;;
4074;SDS011;2052;53.522;9.806;2023-02-28T02:54:30;6.17;;;4.17;;
4074;SDS011;2052;53.522;9.806;2023-02-28T02:56:59;10.63;;;5.20;;
4074;SDS011;2052;53.522;9.806;2023-02-28T02:59:27;7.70;;;4.70;;
4074;SDS011;2052;53.522;9.806;2023-02-28T03:01:55;4.67;;;4.20;;
4074;SDS011;2052;53.522;9.806;2023-02-28T03:04:24;6.70;;;4.50;;
4074;SDS011;2052;53.522;9.806;2023-02-28T03:06:52;6.77;;;4.33;;
4074;SDS011;2052;53.522;9.806;2023-02-28T03:09:20;11.00;;;4.40;;
4074;SDS011;2052;53.522;9.806;2023-02-28T03:11:46;7.03;;;4.57;;
4074;SDS011;2052;53.522;9.806;2023-02-28T03:17:00;9.40;;;4.60;;
4074;SDS011;2052;53.522;9.806;2023-02-28T03:19:45;9.67;;;4.77;;
4074;SDS011;2052;53.522;9.806;2023-02-28T03:22:22;6.00;;;4.57;;
4074;SDS011;2052;53.522;9.806;2023-02-28T03:25:00;7.47;;;4.60;;
4074;SDS011;2052;53.522;9.806;2023-02-28T03:27:31;7.63;;;4.40;;
4074;SDS011;2052;53.522;9.806;2023-02-28T03:30:02;12.67;;;4.90;;
4074;SDS011;2052;53.522;9.806;2023-02-28T03:32:33;7.00;;;4.83;;
4074;SDS011;2052;53.522;9.806;2023-02-28T03:35:02;9.33;;;5.13;;
4074;SDS011;2052;53.522;9.806;2023-02-28T03:37:36;14.97;;;4.83;;
4074;SDS011;2052;53.522;9.806;2023-02-28T03:40:06;5.27;;;4.40;;
4074;SDS011;2052;53.522;9.806;2023-02-28T03:42:34;8.73;;;3.90;;
4074;SDS011;2052;53.522;9.806;2023-02-28T03:45:02;6.93;;;4.73;;
4074;SDS011;2052;53.522;9.806;2023-02-28T03:47:33;5.10;;;4.10;;
4074;SDS011;2052;53.522;9.806;2023-02-28T03:50:03;6.53;;;4.43;;
4074;SDS011;2052;53.522;9.806;2023-02-28T03:52:33;9.03;;;4.00;;
4074;SDS011;2052;53.522;9.806;2023-02-28T03:55:05;9.53;;;4.70;;
4074;SDS011;2052;53.522;9.806;2023-02-28T03:57:37;6.93;;;3.97;;
4074;SDS011;2052;53.522;9.806;2023-02-28T04:00:07;17.70;;;4.50;;
4074;SDS011;2052;53.522;9.806;2023-02-28T04:02:36;10.73;;;5.03;;
4074;SDS011;2052;53.522;9.806;2023-02-28T04:05:02;8.43;;;4.50;;
4074;SDS011;2052;53.522;9.806;2023-02-28T04:07:31;8.90;;;4.53;;
4074;SDS011;2052;53.522;9.806;2023-02-28T04:09:59;7.77;;;4.40;;
4074;SDS011;2052;53.522;9.806;2023-02-28T04:12:25;7.60;;;4.90;;
4074;SDS011;2052;53.522;9.806;2023-02-28T04:14:52;4.83;;;3.93;;
4074;SDS011;2052;53.522;9.806;2023-02-28T04:17:19;7.47;;;4.50;;
4074;SDS011;2052;53.522;9.806;2023-02-28T04:19:45;5.73;;;4.47;;
4074;SDS011;2052;53.522;9.806;2023-02-28T04:22:12;5.43;;;4.10;;
4074;SDS011;2052;53.522;9.806;2023-02-28T04:24:39;8.27;;;4.80;;
4074;SDS011;2052;53.522;9.806;2023-02-28T04:27:08;7.37;;;4.03;;
4074;SDS011;2052;53.522;9.806;2023-02-28T04:29:35;7.77;;;5.00;;
4074;SDS011;2052;53.522;9.806;2023-02-28T04:32:02;5.30;;;3.80;;
4074;SDS011;2052;53.522;9.806;2023-02-28T04:34:29;10.73;;;4.27;;
4074;SDS011;2052;53.522;9.806;2023-02-28T04:36:57;5.70;;;4.30;;
4074;SDS011;2052;53.522;9.806;2023-02-28T04:39:25;5.67;;;4.07;;
4074;SDS011;2052;53.522;9.806;2023-02-28T04:41:51;8.13;;;4.10;;
4074;SDS011;2052;53.522;9.806;2023-02-28T04:44:19;5.53;;;3.50;;
4074;SDS011;2052;53.522;9.806;2023-02-28T04:46:47;6.73;;;4.13;;
4074;SDS011;2052;53.522;9.806;2023-02-28T04:49:15;5.23;;;3.37;;
4074;SDS011;2052;53.522;9.806;2023-02-28T04:51:41;5.77;;;4.03;;
4074;SDS011;2052;53.522;9.806;2023-02-28T04:54:08;8.70;;;4.03;;
4074;SDS011;2052;53.522;9.806;2023-02-28T04:56:35;15.73;;;4.10;;
4074;SDS011;2052;53.522;9.806;2023-02-28T04:59:01;6.90;;;3.70;;
4074;SDS011;2052;53.522;9.806;2023-02-28T05:01:32;5.93;;;3.80;;
4074;SDS011;2052;53.522;9.806;2023-02-28T05:04:00;8.00;;;3.80;;
4074;SDS011;2052;53.522;9.806;2023-02-28T05:06:28;10.40;;;3.50;;
4074;SDS011;2052;53.522;9.806;2023-02-28T05:08:56;5.33;;;3.90;;
4074;SDS011;2052;53.522;9.806;2023-02-28T05:11:23;4.40;;;3.60;;
4074;SDS011;2052;53.522;9.806;2023-02-28T05:13:51;10.97;;;4.23;;
4074;SDS011;2052;53.522;9.806;2023-02-28T05:16:18;9.27;;;4.40;;
4074;SDS011;2052;53.522;9.806;2023-02-28T05:18:46;5.10;;;3.30;;
4074;SDS011;2052;53.522;9.806;2023-02-28T05:21:24;8.50;;;4.80;;
4074;SDS011;2052;53.522;9.806;2023-02-28T05:23:52;10.37;;;5.03;;
4074;SDS011;2052;53.522;9.806;2023-02-28T05:26:19;14.87;;;4.60;;
4074;SDS011;2052;53.522;9.806;2023-02-28T05:28:46;6.50;;;4.03;;
4074;SDS011;2052;53.522;9.806;2023-02-28T05:31:13;7.43;;;5.33;;
4074;SDS011;2052;53.522;9.806;2023-02-28T05:33:40;14.80;;;6.70;;
4074;SDS011;2052;53.522;9.806;2023-02-28T05:36:08;17.60;;;5.70;;
4074;SDS011;2052;53.522;9.806;2023-02-28T05:38:35;12.17;;;5.67;;
4074;SDS011;2052;53.522;9.806;2023-02-28T05:41:04;12.23;;;5.20;;
4074;SDS011;2052;53.522;9.806;2023-02-28T05:43:32;12.73;;;4.97;;
4074;SDS011;2052;53.522;9.806;2023-02-28T05:45:58;10.57;;;5.43;;
4074;SDS011;2052;53.522;9.806;2023-02-28T05:48:25;10.20;;;4.87;;
4074;SDS011;2052;53.522;9.806;2023-02-28T05:50:52;10.30;;;4.37;;
4074;SDS011;2052;53.522;9.806;2023-02-28T05:53:20;7.13;;;4.33;;
4074;SDS011;2052;53.522;9.806;2023-02-28T05:55:47;13.90;;;4.80;;
4074;SDS011;2052;53.522;9.806;2023-02-28T05:58:14;10.10;;;4.83;;
4074;SDS011;2052;53.522;9.806;2023-02-28T06:00:40;9.33;;;4.83;;
4074;SDS011;2052;53.522;9.806;2023-02-28T06:03:07;7.10;;;4.37;;
4074;SDS011;2052;53.522;9.806;2023-02-28T06:05:33;9.90;;;5.60;;
4074;SDS011;2052;53.522;9.806;2023-02-28T06:08:00;18.77;;;6.10;;
4074;SDS011;2052;53.522;9.806;2023-02-28T06:10:28;16.93;;;5.90;;
4074;SDS011;2052;53.522;9.806;2023-02-28T06:12:55;9.97;;;5.43;;
4074;SDS011;2052;53.522;9.806;2023-02-28T06:15:22;13.20;;;5.50;;
4074;SDS011;2052;53.522;9.806;2023-02-28T06:17:48;10.53;;;6.13;;
4074;SDS011;2052;53.522;9.806;2023-02-28T06:20:15;12.53;;;6.23;;
4074;SDS011;2052;53.522;9.806;2023-02-28T06:22:42;15.07;;;6.40;;
4074;SDS011;2052;53.522;9.806;2023-02-28T06:25:09;11.47;;;5.87;;
4074;SDS011;2052;53.522;9.806;2023-02-28T06:27:37;10.60;;;5.80;;
4074;SDS011;2052;53.522;9.806;2023-02-28T06:30:04;12.90;;;5.33;;
4074;SDS011;2052;53.522;9.806;2023-02-28T06:32:32;9.77;;;5.90;;
4074;SDS011;2052;53.522;9.806;2023-02-28T06:34:58;13.90;;;6.70;;
4074;SDS011;2052;53.522;9.806;2023-02-28T06:37:25;20.20;;;7.23;;
4074;SDS011;2052;53.522;9.806;2023-02-28T06:39:54;15.40;;;6.17;;
4074;SDS011;2052;53.522;9.806;2023-02-28T06:42:22;10.47;;;5.80;;
4074;SDS011;2052;53.522;9.806;2023-02-28T06:44:51;10.50;;;5.57;;
4074;SDS011;2052;53.522;9.806;2023-02-28T06:47:17;16.20;;;7.63;;
4074;SDS011;2052;53.522;9.806;2023-02-28T06:49:44;14.70;;;7.60;;
4074;SDS011;2052;53.522;9.806;2023-02-28T06:52:11;13.70;;;6.47;;
4074;SDS011;2052;53.522;9.806;2023-02-28T06:54:39;10.80;;;5.70;;
4074;SDS011;2052;53.522;9.806;2023-02-28T06:57:06;9.87;;;6.10;;
4074;SDS011;2052;53.522;9.806;2023-02-28T06:59:32;9.70;;;5.93;;
4074;SDS011;2052;53.522;9.806;2023-02-28T07:02:01;14.37;;;7.70;;
4074;SDS011;2052;53.522;9.806;2023-02-28T07:04:29;10.27;;;5.30;;
4074;SDS011;2052;53.522;9.806;2023-02-28T07:06:56;10.70;;;4.87;;
4074;SDS011;2052;53.522;9.806;2023-02-28T07:09:23;7.33;;;4.10;;
4074;SDS011;2052;53.522;9.806;2023-02-28T07:11:55;8.23;;;5.23;;
4074;SDS011;2052;53.522;9.806;2023-02-28T07:14:25;9.23;;;4.40;;
4074;SDS011;2052;53.522;9.806;2023-02-28T07:16:52;8.70;;;4.00;;
4074;SDS011;2052;53.522;9.806;2023-02-28T07:19:20;10.10;;;4.27;;
4074;SDS011;2052;53.522;9.806;2023-02-28T07:21:47;8.83;;;4.70;;
4074;SDS011;2052;53.522;9.806;2023-02-28T07:24:14;14.57;;;4.07;;
4074;SDS011;2052;53.522;9.806;2023-02-28T07:26:42;8.50;;;3.53;;
4074;SDS011;2052;53.522;9.806;2023-02-28T07:29:09;5.50;;;4.00;;
4074;SDS011;2052;53.522;9.806;2023-02-28T07:31:36;4.30;;;3.60;;
4074;SDS011;2052;53.522;9.806;2023-02-28T07:34:03;8.70;;;4.73;;
4074;SDS011;2052;53.522;9.806;2023-02-28T07:36:31;8.77;;;5.03;;
4074;SDS011;2052;53.522;9.806;2023-02-28T07:38:58;15.63;;;9.47;;
4074;SDS011;2052;53.522;9.806;2023-02-28T07:41:25;12.47;;;8.00;;
4074;SDS011;2052;53.522;9.806;2023-02-28T07:43:53;12.03;;;6.47;;
4074;SDS011;2052;53.522;9.806;2023-02-28T07:46:20;7.50;;;5.20;;
4074;SDS011;2052;53.522;9.806;2023-02-28T07:48:46;16.23;;;7.20;;
4074;SDS011;2052;53.522;9.806;2023-02-28T07:51:13;14.90;;;7.63;;
4074;SDS011;2052;53.522;9.806;2023-02-28T07:53:41;14.73;;;7.70;;
4074;SDS011;2052;53.522;9.806;2023-02-28T07:56:07;19.67;;;7.97;;
4074;SDS011;2052;53.522;9.806;2023-02-28T07:58:35;11.70;;;7.60;;
4074;SDS011;2052;53.522;9.806;2023-02-28T08:01:06;8.07;;;5.33;;
4074;SDS011;2052;53.522;9.806;2023-02-28T08:03:33;8.70;;;4.57;;
4074;SDS011;2052;53.522;9.806;2023-02-28T08:06:00;7.43;;;4.50;;
4074;SDS011;2052;53.522;9.806;2023-02-28T08:08:27;6.13;;;3.47;;
4074;SDS011;2052;53.522;9.806;2023-02-28T08:10:59;5.57;;;3.97;;
4074;SDS011;2052;53.522;9.806;2023-02-28T08:13:26;9.03;;;4.27;;
4074;SDS011;2052;53.522;9.806;2023-02-28T08:15:53;5.03;;;3.70;;
4074;SDS011;2052;53.522;9.806;2023-02-28T08:18:20;5.20;;;3.93;;
4074;SDS011;2052;53.522;9.806;2023-02-28T08:20:47;5.87;;;4.53;;
4074;SDS011;2052;53.522;9.806;2023-02-28T08:23:13;7.30;;;5.10;;
4074;SDS011;2052;53.522;9.806;2023-02-28T08:25:40;8.93;;;4.20;;
4074;SDS011;2052;53.522;9.806;2023-02-28T08:28:09;9.27;;;4.30;;
4074;SDS011;2052;53.522;9.806;2023-02-28T08:30:35;5.60;;;3.90;;
4074;SDS011;2052;53.522;9.806;2023-02-28T08:33:02;3.73;;;3.33;;
4074;SDS011;2052;53.522;9.806;2023-02-28T08:35:29;4.20;;;3.40;;
4074;SDS011;2052;53.522;9.806;2023-02-28T08:37:56;3.83;;;3.40;;
4074;SDS011;2052;53.522;9.806;2023-02-28T08:40:23;4.43;;;3.37;;
4074;SDS011;2052;53.522;9.806;2023-02-28T08:42:49;5.37;;;3.47;;
4074;SDS011;2052;53.522;9.806;2023-02-28T08:45:18;4.97;;;3.20;;
4074;SDS011;2052;53.522;9.806;2023-02-28T08:47:44;4.27;;;3.70;;
4074;SDS011;2052;53.522;9.806;2023-02-28T08:50:11;19.03;;;8.83;;
4074;SDS011;2052;53.522;9.806;2023-02-28T08:52:41;6.63;;;3.80;;
4074;SDS011;2052;53.522;9.806;2023-02-28T08:55:08;3.27;;;2.97;;
4074;SDS011;2052;53.522;9.806;2023-02-28T08:57:35;12.93;;;3.70;;
4074;SDS011;2052;53.522;9.806;2023-02-28T09:00:02;5.30;;;3.33;;
4074;SDS011;2052;53.522;9.806;2023-02-28T09:02:31;4.90;;;3.27;;
4074;SDS011;2052;53.522;9.806;2023-02-28T09:04:58;8.30;;;3.43;;
4074;SDS011;2052;53.522;9.806;2023-02-28T09:07:24;3.17;;;2.87;;
4074;SDS011;2052;53.522;9.806;2023-02-28T09:09:51;4.67;;;3.50;;
4074;SDS011;2052;53.522;9.806;2023-02-28T09:12:21;5.13;;;3.33;;
4074;SDS011;2052;53.522;9.806;2023-02-28T09:14:48;4.37;;;3.00;;
4074;SDS011;2052;53.522;9.806;2023-02-28T09:17:17;5.60;;;2.83;;
4074;SDS011;2052;53.522;9.806;2023-02-28T09:19:47;3.80;;;3.07;;
4074;SDS011;2052;53.522;9.806;2023-02-28T09:22:13;2.83;;;2.57;;
4074;SDS011;2052;53.522;9.806;2023-02-28T09:24:41;3.90;;;2.70;;
4074;SDS011;2052;53.522;9.806;2023-02-28T09:27:09;3.77;;;2.80;;
4074;SDS011;2052;53.522;9.806;2023-02-28T09:29:36;5.50;;;2.90;;
4074;SDS011;2052;53.522;9.806;2023-02-28T09:32:03;5.20;;;2.90;;
4074;SDS011;2052;53.522;9.806;2023-02-28T09:34:30;3.60;;;2.80;;
4074;SDS011;2052;53.522;9.806;2023-02-28T09:36:59;2.90;;;2.57;;
4074;SDS011;2052;53.522;9.806;2023-02-28T09:39:25;4.80;;;2.60;;
4074;SDS011;2052;53.522;9.806;2023-02-28T09:41:54;4.70;;;2.47;;
4074;SDS011;2052;53.522;9.806;2023-02-28T09:44:23;4.70;;;2.90;;
4074;SDS011;2052;53.522;9.806;2023-02-28T09:46:55;5.83;;;2.43;;
4074;SDS011;2052;53.522;9.806;2023-02-28T09:49:25;3.83;;;2.73;;
4074;SDS011;2052;53.522;9.806;2023-02-28T09:52:00;4.10;;;2.57;;
4074;SDS011;2052;53.522;9.806;2023-02-28T09:54:30;4.70;;;2.50;;
4074;SDS011;2052;53.522;9.806;2023-02-28T09:56:59;5.00;;;2.30;;
4074;SDS011;2052;53.522;9.806;2023-02-28T09:59:33;3.03;;;2.50;;
4074;SDS011;2052;53.522;9.806;2023-02-28T10:02:09;2.10;;;1.70;;
4074;SDS011;2052;53.522;9.806;2023-02-28T10:04:46;3.63;;;2.17;;
4074;SDS011;2052;53.522;9.806;2023-02-28T10:07:21;1.70;;;1.47;;
4074;SDS011;2052;53.522;9.806;2023-02-28T10:09:58;2.73;;;1.73;;
4074;SDS011;2052;53.522;9.806;2023-02-28T10:12:26;2.30;;;1.97;;
4074;SDS011;2052;53.522;9.806;2023-02-28T10:14:54;2.63;;;2.00;;
4074;SDS011;2052;53.522;9.806;2023-02-28T10:17:21;5.03;;;1.70;;
4074;SDS011;2052;53.522;9.806;2023-02-28T10:19:55;1.57;;;1.47;;
4074;SDS011;2052;53.522;9.806;2023-02-28T10:22:26;2.80;;;1.43;;
4074;SDS011;2052;53.522;9.806;2023-02-28T10:24:55;1.00;;;1.00;;
4074;SDS011;2052;53.522;9.806;2023-02-28T10:27:28;3.57;;;1.60;;
4074;SDS011;2052;53.522;9.806;2023-02-28T10:29:57;5.17;;;2.00;;
4074;SDS011;2052;53.522;9.806;2023-02-28T10:32:25;3.13;;;1.43;;
4074;SDS011;2052;53.522;9.806;2023-02-28T10:34:55;1.83;;;1.73;;
4074;SDS011;2052;53.522;9.806;2023-02-28T10:37:23;2.70;;;1.70;;
4074;SDS011;2052;53.522;9.806;2023-02-28T10:39:51;2.27;;;1.73;;
4074;SDS011;2052;53.522;9.806;2023-02-28T10:42:19;6.60;;;1.90;;
4074;SDS011;2052;53.522;9.806;2023-02-28T10:44:55;2.57;;;2.23;;
4074;SDS011;2052;53.522;9.806;2023-02-28T10:47:31;3.93;;;2.20;;
4074;SDS011;2052;53.522;9.806;2023-02-28T10:49:59;1.87;;;1.77;;
4074;SDS011;2052;53.522;9.806;2023-02-28T10:52:32;4.13;;;2.43;;
4074;SDS011;2052;53.522;9.806;2023-02-28T10:55:15;2.17;;;1.80;;
4074;SDS011;2052;53.522;9.806;2023-02-28T10:57:46;2.93;;;2.13;;
4074;SDS011;2052;53.522;9.806;2023-02-28T11:00:14;1.83;;;1.73;;
4074;SDS011;2052;53.522;9.806;2023-02-28T11:02:43;2.27;;;1.80;;
4074;SDS011;2052;53.522;9.806;2023-02-28T11:05:25;1.70;;;1.60;;
4074;SDS011;2052;53.522;9.806;2023-02-28T11:07:54;4.23;;;2.60;;
4074;SDS011;2052;53.522;9.806;2023-02-28T11:10:24;2.90;;;2.53;;
4074;SDS011;2052;53.522;9.806;2023-02-28T11:12:54;2.90;;;2.63;;
4074;SDS011;2052;53.522;9.806;2023-02-28T11:15:22;2.90;;;2.60;;
4074;SDS011;2052;53.522;9.806;2023-02-28T11:17:54;3.37;;;2.60;;
4074;SDS011;2052;53.522;9.806;2023-02-28T11:20:22;2.93;;;2.37;;
4074;SDS011;2052;53.522;9.806;2023-02-28T11:22:50;4.00;;;2.40;;
4074;SDS011;2052;53.522;9.806;2023-02-28T11:25:19;5.60;;;2.60;;
4074;SDS011;2052;53.522;9.806;2023-02-28T11:27:50;3.33;;;2.57;;
4074;SDS011;2052;53.522;9.806;2023-02-28T11:30:24;6.03;;;3.57;;
4074;SDS011;2052;53.522;9.806;2023-02-28T11:32:53;2.83;;;2.50;;
4074;SDS011;2052;53.522;9.806;2023-02-28T11:35:21;5.27;;;3.07;;
4074;SDS011;2052;53.522;9.806;2023-02-28T11:37:51;3.17;;;2.20;;
4074;SDS011;2052;53.522;9.806;2023-02-28T11:40:18;2.60;;;2.40;;
4074;SDS011;2052;53.522;9.806;2023-02-28T11:42:52;2.37;;;2.00;;
4074;SDS011;2052;53.522;9.806;2023-02-28T11:45:30;2.33;;;2.00;;
4074;SDS011;2052;53.522;9.806;2023-02-28T11:48:07;2.07;;;1.87;;
4074;SDS011;2052;53.522;9.806;2023-02-28T11:50:42;2.30;;;2.13;;
4074;SDS011;2052;53.522;9.806;2023-02-28T11:53:17;5.53;;;2.13;;
4074;SDS011;2052;53.522;9.806;2023-02-28T11:55:49;2.00;;;1.77;;
4074;SDS011;2052;53.522;9.806;2023-02-28T11:58:26;2.73;;;2.03;;
4074;SDS011;2052;53.522;9.806;2023-02-28T12:01:03;3.40;;;2.00;;
4074;SDS011;2052;53.522;9.806;2023-02-28T12:03:39;2.10;;;1.90;;
4074;SDS011;2052;53.522;9.806;2023-02-28T12:06:17;3.20;;;2.90;;
4074;SDS011;2052;53.522;9.806;2023-02-28T12:08:48;3.53;;;3.23;;
4074;SDS011;2052;53.522;9.806;2023-02-28T12:11:23;2.87;;;2.57;;
4074;SDS011;2052;53.522;9.806;2023-02-28T12:13:59;5.53;;;2.10;;
4074;SDS011;2052;53.522;9.806;2023-02-28T12:16:43;4.30;;;2.40;;
4074;SDS011;2052;53.522;9.806;2023-02-28T12:19:16;3.17;;;2.10;;
4074;SDS011;2052;53.522;9.806;2023-02-28T12:21:53;3.43;;;2.20;;
4074;SDS011;2052;53.522;9.806;2023-02-28T12:24:33;4.07;;;1.90;;
4074;SDS011;2052;53.522;9.806;2023-02-28T12:27:06;2.13;;;2.03;;
4074;SDS011;2052;53.522;9.806;2023-02-28T12:29:37;2.30;;;2.10;;
4074;SDS011;2052;53.522;9.806;2023-02-28T12:32:09;2.77;;;2.57;;
4074;SDS011;2052;53.522;9.806;2023-02-28T12:34:41;2.47;;;2.27;;
4074;SDS011;2052;53.522;9.806;2023-02-28T12:37:12;3.47;;;2.57;;
4074;SDS011;2052;53.522;9.806;2023-02-28T12:39:41;4.10;;;2.60;;
4074;SDS011;2052;53.522;9.806;2023-02-28T12:42:11;4.97;;;1.90;;
4074;SDS011;2052;53.522;9.806;2023-02-28T12:44:42;4.57;;;2.17;;
4074;SDS011;2052;53.522;9.806;2023-02-28T12:47:13;2.67;;;2.30;;
4074;SDS011;2052;53.522;9.806;2023-02-28T12:49:42;3.30;;;2.70;;
4074;SDS011;2052;53.522;9.806;2023-02-28T12:52:12;6.03;;;2.40;;
4074;SDS011;2052;53.522;9.806;2023-02-28T12:54:44;4.00;;;2.40;;
4074;SDS011;2052;53.522;9.806;2023-02-28T12:57:15;2.57;;;2.27;;
4074;SDS011;2052;53.522;9.806;2023-02-28T12:59:48;2.90;;;2.17;;
4074;SDS011;2052;53.522;9.806;2023-02-28T13:02:27;3.63;;;2.50;;
4074;SDS011;2052;53.522;9.806;2023-02-28T13:08:11;4.17;;;2.50;;
4074;SDS011;2052;53.522;9.806;2023-02-28T13:10:50;4.33;;;2.77;;
4074;SDS011;2052;53.522;9.806;2023-02-28T13:13:19;3.67;;;2.73;;
4074;SDS011;2052;53.522;9.806;2023-02-28T13:15:58;10.13;;;3.30;;
4074;SDS011;2052;53.522;9.806;2023-02-28T13:18:31;4.93;;;2.30;;
4074;SDS011;2052;53.522;9.806;2023-02-28T13:21:01;4.07;;;2.83;;
4074;SDS011;2052;53.522;9.806;2023-02-28T13:23:58;4.10;;;2.17;;
4074;SDS011;2052;53.522;9.806;2023-02-28T13:29:42;4.77;;;2.50;;
4074;SDS011;2052;53.522;9.806;2023-02-28T13:35:14;3.10;;;2.80;;
4074;SDS011;2052;53.522;9.806;2023-02-28T13:37:42;3.30;;;2.80;;
4074;SDS011;2052;53.522;9.806;2023-02-28T13:40:26;2.83;;;2.63;;
4074;SDS011;2052;53.522;9.806;2023-02-28T13:43:01;3.40;;;3.10;;
4074;SDS011;2052;53.522;9.806;2023-02-28T13:45:29;3.03;;;2.80;;
4074;SDS011;2052;53.522;9.806;2023-02-28T13:48:03;7.40;;;2.63;;
4074;SDS011;2052;53.522;9.806;2023-02-28T13:50:34;3.07;;;2.43;;
4074;SDS011;2052;53.522;9.806;2023-02-28T13:56:01;2.90;;;2.53;;
4074;SDS011;2052;53.522;9.806;2023-02-28T13:58:35;5.20;;;3.10;;
4074;SDS011;2052;53.522;9.806;2023-02-28T14:01:12;2.50;;;2.10;;
4074;SDS011;2052;53.522;9.806;2023-02-28T14:03:51;5.40;;;3.30;;
4074;SDS011;2052;53.522;9.806;2023-02-28T14:06:37;4.17;;;2.70;;
4074;SDS011;2052;53.522;9.806;2023-02-28T14:09:06;7.60;;;3.03;;
4074;SDS011;2052;53.522;9.806;2023-02-28T14:11:49;4.83;;;2.80;;
4074;SDS011;2052;53.522;9.806;2023-02-28T14:17:20;4.50;;;2.80;;
4074;SDS011;2052;53.522;9.806;2023-02-28T14:19:49;2.30;;;2.10;;
4074;SDS011;2052;53.522;9.806;2023-02-28T14:22:21;3.50;;;2.63;;
4074;SDS011;2052;53.522;9.806;2023-02-28T14:25:08;3.23;;;2.73;;
4074;SDS011;2052;53.522;9.806;2023-02-28T14:27:38;8.40;;;2.63;;
4074;SDS011;2052;53.522;9.806;2023-02-28T14:30:13;4.70;;;3.20;;
4074;SDS011;2052;53.522;9.806;2023-02-28T14:32:56;4.07;;;2.40;;
4074;SDS011;2052;53.522;9.806;2023-02-28T14:35:45;5.33;;;2.93;;
4074;SDS011;2052;53.522;9.806;2023-02-28T14:38:19;7.10;;;2.47;;
4074;SDS011;2052;53.522;9.806;2023-02-28T14:40:47;6.37;;;2.97;;
4074;SDS011;2052;53.522;9.806;2023-02-28T14:43:19;6.20;;;2.60;;
4074;SDS011;2052;53.522;9.806;2023-02-28T14:45:49;4.60;;;3.20;;
4074;SDS011;2052;53.522;9.806;2023-02-28T14:48:16;2.67;;;2.47;;
4074;SDS011;2052;53.522;9.806;2023-02-28T14:50:48;7.13;;;3.20;;
4074;SDS011;2052;53.522;9.806;2023-02-28T14:53:18;6.97;;;3.10;;
4074;SDS011;2052;53.522;9.806;2023-02-28T14:55:46;7.43;;;3.37;;
4074;SDS011;2052;53.522;9.806;2023-02-28T14:58:19;3.67;;;2.53;;
4074;SDS011;2052;53.522;9.806;2023-02-28T15:00:50;4.17;;;2.83;;
4074;SDS011;2052;53.522;9.806;2023-02-28T15:03:20;7.00;;;2.73;;
4074;SDS011;2052;53.522;9.806;2023-02-28T15:05:52;3.40;;;2.60;;
4074;SDS011;2052;53.522;9.806;2023-02-28T15:08:20;3.27;;;2.50;;
4074;SDS011;2052;53.522;9.806;2023-02-28T15:10:50;6.70;;;3.03;;
4074;SDS011;2052;53.522;9.806;2023-02-28T15:13:18;3.80;;;2.77;;
4074;SDS011;2052;53.522;9.806;2023-02-28T15:15:45;5.10;;;2.97;;
4074;SDS011;2052;53.522;9.806;2023-02-28T15:18:16;6.43;;;3.00;;
4074;SDS011;2052;53.522;9.806;2023-02-28T15:20:49;2.80;;;2.57;;
4074;SDS011;2052;53.522;9.806;2023-02-28T15:23:18;4.03;;;3.30;;
4074;SDS011;2052;53.522;9.806;2023-02-28T15:25:45;6.53;;;3.27;;
4074;SDS011;2052;53.522;9.806;2023-02-28T15:28:14;4.63;;;3.00;;
4074;SDS011;2052;53.522;9.806;2023-02-28T15:30:50;4.37;;;2.90;;
4074;SDS011;2052;53.522;9.806;2023-02-28T15:33:20;5.27;;;3.10;;
4074;SDS011;2052;53.522;9.806;2023-02-28T15:35:49;4.00;;;2.93;;
4074;SDS011;2052;53.522;9.806;2023-02-28T15:38:17;8.77;;;5.20;;
4074;SDS011;2052;53.522;9.806;2023-02-28T15:40:49;7.33;;;3.70;;
4074;SDS011;2052;53.522;9.806;2023-02-28T15:43:23;3.20;;;2.90;;
4074;SDS011;2052;53.522;9.806;2023-02-28T15:45:51;5.73;;;2.50;;
4074;SDS011;2052;53.522;9.806;2023-02-28T15:48:19;8.53;;;7.23;;
4074;SDS011;2052;53.522;9.806;2023-02-28T15:50:48;4.20;;;3.10;;
4074;SDS011;2052;53.522;9.806;2023-02-28T15:53:16;5.43;;;3.80;;
4074;SDS011;2052;53.522;9.806;2023-02-28T15:55:45;6.50;;;4.50;;